Time;durP1;ratioP1;P1;durP2;ratioP2;P2;SDS_P1;SDS_P2;PMS_P1;PMS_P2;Temp;Humidity;BMP_temperature;BMP_pressure;BME280_temperature;BME280_humidity;BME280_pressure;Samples;Min_cycle;Max_cycle;Signal;HPM_P1;HPM_P2
2023/03/09 00:00:10;;;;;;;2.85;1.23;;;;;;;10.76;100.00;97082.13;341151;29;1127;-72
2023/03/09 00:00:22;;;;;;;4.07;1.40;;;;;;;10.78;100.00;97095.03;340542;28;2895;-72
2023/03/09 00:00:35;;;;;;;4.47;1.90;;;;;;;10.69;100.00;97091.34;340414;28;2002;-72
2023/03/09 00:00:47;;;;;;;5.32;3.63;;;;;;;10.65;100.00;97087.31;342409;28;1277;-73
2023/03/09 00:00:59;;;;;;;5.90;4.47;;;;;;;10.67;100.00;97093.22;342266;28;1020;-73
2023/03/09 00:01:23;;;;;;;4.95;3.42;;;;;;;10.65;100.00;97100.31;342189;28;1278;-73
2023/03/09 00:01:35;;;;;;;4.75;1.60;;;;;;;10.73;100.00;97097.97;341660;28;1697;-72
2023/03/09 00:01:53;;;;;;;4.15;1.60;;;;;;;10.75;100.00;97103.06;342487;28;1507;-72
2023/03/09 00:02:05;;;;;;;5.35;2.72;;;;;;;10.70;100.00;97107.75;340181;28;1992;-73
2023/03/09 00:02:17;;;;;;;5.68;3.58;;;;;;;10.68;100.00;97097.47;339913;29;1801;-73
2023/03/09 00:02:29;;;;;;;5.10;3.70;;;;;;;10.76;100.00;97097.72;339374;29;2341;-73
2023/03/09 00:02:41;;;;;;;2.83;1.58;;;;;;;10.75;100.00;97105.66;340240;29;1200;-73
2023/03/09 00:02:53;;;;;;;2.65;1.23;;;;;;;10.70;100.00;97108.56;339880;29;1766;-73
2023/03/09 00:03:05;;;;;;;4.45;1.20;;;;;;;10.69;100.00;97090.53;339464;29;1128;-73
2023/03/09 00:03:17;;;;;;;4.57;1.13;;;;;;;10.62;100.00;97099.69;340441;29;1058;-73
2023/03/09 00:03:29;;;;;;;3.97;1.10;;;;;;;10.61;100.00;97098.88;340974;29;1150;-73
2023/03/09 00:03:41;;;;;;;3.97;1.27;;;;;;;10.59;100.00;97095.56;341844;28;1020;-73
2023/03/09 00:03:54;;;;;;;4.45;3.42;;;;;;;10.60;100.00;97092.00;341621;28;1507;-73
2023/03/09 00:04:08;;;;;;;6.47;5.93;;;;;;;10.66;100.00;97085.53;342032;28;2709;-73
2023/03/09 00:04:21;;;;;;;5.13;4.72;;;;;;;10.67;100.00;97088.03;340826;29;1209;-73
2023/03/09 00:04:33;;;;;;;3.05;2.63;;;;;;;10.62;100.00;97087.53;341111;29;1188;-73
2023/03/09 00:04:48;;;;;;;2.78;1.40;;;;;;;10.65;100.00;97089.09;341376;28;1318;-73
2023/03/09 00:05:00;;;;;;;2.33;1.30;;;;;;;10.60;100.00;97084.22;340860;29;1907;-73
2023/03/09 00:05:12;;;;;;;3.15;2.13;;;;;;;10.65;100.00;97089.91;340533;28;1068;-73
2023/03/09 00:05:24;;;;;;;3.50;2.47;;;;;;;10.66;100.00;97091.56;341292;28;1457;-73
2023/03/09 00:05:36;;;;;;;5.25;2.50;;;;;;;10.65;100.00;97079.53;342124;28;1818;-73
2023/03/09 00:05:53;;;;;;;4.40;1.77;;;;;;;10.61;100.00;97083.28;340325;29;2038;-72
2023/03/09 00:06:06;;;;;;;2.00;1.20;;;;;;;10.62;100.00;97077.13;339661;29;923;-73
2023/03/09 00:06:18;;;;;;;2.45;1.13;;;;;;;10.63;100.00;97081.41;340681;29;1143;-72
2023/03/09 00:06:30;;;;;;;2.60;1.10;;;;;;;10.65;100.00;97097.72;339252;28;2377;-74
2023/03/09 00:06:43;;;;;;;2.28;1.10;;;;;;;10.64;100.00;97098.63;341185;29;1779;-73
2023/03/09 00:06:55;;;;;;;3.05;1.30;;;;;;;10.65;100.00;97091.69;339575;29;1167;-74
2023/03/09 00:07:07;;;;;;;2.90;1.30;;;;;;;10.70;100.00;97098.19;342016;28;1461;-74
2023/03/09 00:07:21;;;;;;;3.25;1.30;;;;;;;10.70;100.00;97103.38;341134;28;1060;-73
2023/03/09 00:07:33;;;;;;;3.35;1.20;;;;;;;10.69;100.00;97101.72;342096;28;1140;-73
2023/03/09 00:07:46;;;;;;;4.20;1.30;;;;;;;10.66;100.00;97099.34;342562;28;1324;-73
2023/03/09 00:07:58;;;;;;;4.05;1.65;;;;;;;10.69;100.00;97096.53;343631;28;2070;-73
2023/03/09 00:08:10;;;;;;;4.45;1.80;;;;;;;10.69;100.00;97099.13;342110;28;1970;-73
2023/03/09 00:08:22;;;;;;;4.13;1.83;;;;;;;10.64;100.00;97096.03;342435;28;1124;-73
2023/03/09 00:08:34;;;;;;;4.80;2.28;;;;;;;10.62;100.00;97097.91;342388;28;1103;-73
2023/03/09 00:08:47;;;;;;;3.90;2.35;;;;;;;10.59;100.00;97098.16;342423;28;1245;-73
2023/03/09 00:08:59;;;;;;;3.40;1.75;;;;;;;10.59;100.00;97095.56;341565;28;2158;-73
2023/03/09 00:09:12;;;;;;;3.50;1.30;;;;;;;10.61;100.00;97098.88;342217;28;1643;-73
2023/03/09 00:09:24;;;;;;;2.85;1.27;;;;;;;10.60;100.00;97094.59;342199;28;1229;-73
2023/03/09 00:09:36;;;;;;;2.92;1.35;;;;;;;10.58;100.00;97099.94;342322;28;861;-72
2023/03/09 00:09:48;;;;;;;2.40;1.17;;;;;;;10.60;100.00;97099.81;342419;28;1314;-72
2023/03/09 00:10:00;;;;;;;2.92;1.25;;;;;;;10.60;100.00;97107.59;342618;28;1053;-72
2023/03/09 00:10:14;;;;;;;4.10;2.47;;;;;;;10.65;100.00;97104.69;341892;28;1855;-72
2023/03/09 00:10:26;;;;;;;4.55;3.70;;;;;;;10.57;100.00;97110.44;342251;28;1016;-73
2023/03/09 00:10:40;;;;;;;3.17;2.50;;;;;;;10.63;100.00;97080.59;341623;28;1892;-73
2023/03/09 00:10:52;;;;;;;2.65;1.65;;;;;;;10.71;100.00;97114.63;342234;28;1414;-73
2023/03/09 00:11:09;;;;;;;2.60;1.20;;;;;;;10.74;100.00;97099.59;342481;28;1216;-73
2023/03/09 00:11:21;;;;;;;3.72;1.30;;;;;;;10.68;100.00;97097.47;342363;28;1261;-73
2023/03/09 00:11:33;;;;;;;3.70;1.38;;;;;;;10.66;100.00;97101.13;342580;28;753;-73
2023/03/09 00:11:47;;;;;;;3.90;1.45;;;;;;;10.65;100.00;97102.91;342421;28;1281;-73
2023/03/09 00:11:59;;;;;;;4.43;1.40;;;;;;;10.63;100.00;97104.78;342563;28;1027;-73
2023/03/09 00:12:11;;;;;;;4.07;1.75;;;;;;;10.60;100.00;97115.38;342469;28;1089;-72
2023/03/09 00:12:23;;;;;;;3.42;2.28;;;;;;;10.65;100.00;97102.91;342195;28;1535;-72
2023/03/09 00:12:35;;;;;;;3.65;2.45;;;;;;;10.63;100.00;97102.19;340432;29;1815;-73
2023/03/09 00:12:48;;;;;;;3.35;1.90;;;;;;;10.61;100.00;97104.06;340636;29;1416;-73
2023/03/09 00:12:59;;;;;;;2.35;1.35;;;;;;;10.56;100.00;97112.22;340956;29;1012;-73
2023/03/09 00:13:11;;;;;;;2.15;1.10;;;;;;;10.57;100.00;97103.47;340828;29;1142;-73
2023/03/09 00:13:23;;;;;;;2.95;1.10;;;;;;;10.54;100.00;97102.84;341294;29;1107;-73
2023/03/09 00:13:36;;;;;;;2.80;1.10;;;;;;;10.58;100.00;97109.47;340730;29;1040;-73
2023/03/09 00:13:49;;;;;;;3.00;1.10;;;;;;;10.58;100.00;97125.06;341594;28;1351;-73
2023/03/09 00:14:01;;;;;;;3.15;1.38;;;;;;;10.57;100.00;97102.63;340730;29;1204;-73
2023/03/09 00:14:14;;;;;;;4.15;1.40;;;;;;;10.52;100.00;97083.97;340475;28;1932;-74
2023/03/09 00:14:27;;;;;;;3.90;1.50;;;;;;;10.58;100.00;97101.69;342346;28;1750;-73
2023/03/09 00:14:39;;;;;;;1.88;0.95;;;;;;;10.59;100.00;97111.16;342935;28;1282;-73
2023/03/09 00:14:52;;;;;;;2.58;0.90;;;;;;;10.65;100.00;97120.28;343805;28;1391;-72
2023/03/09 00:15:05;;;;;;;3.03;1.23;;;;;;;10.63;100.00;97112.59;343602;28;1107;-72
2023/03/09 00:15:17;;;;;;;2.92;1.33;;;;;;;10.61;100.00;97093.69;343627;28;1103;-73
2023/03/09 00:15:30;;;;;;;2.53;1.25;;;;;;;10.72;100.00;97106.69;343470;28;1070;-73
2023/03/09 00:15:43;;;;;;;2.35;1.10;;;;;;;10.68;100.00;97130.41;342160;28;1086;-73
2023/03/09 00:15:56;;;;;;;1.92;1.20;;;;;;;10.71;100.00;97114.63;342613;28;1242;-73
2023/03/09 00:16:13;;;;;;;2.75;1.63;;;;;;;10.66;100.00;97121.91;342567;28;1555;-72
2023/03/09 00:16:28;;;;;;;2.35;1.27;;;;;;;10.62;100.00;97110.91;341786;28;1506;-72
2023/03/09 00:16:41;;;;;;;1.90;0.90;;;;;;;10.61;100.00;97118.84;342139;28;1212;-74
2023/03/09 00:16:53;;;;;;;2.25;1.15;;;;;;;10.51;100.00;97144.66;342564;28;1232;-73
2023/03/09 00:17:06;;;;;;;1.95;1.30;;;;;;;10.50;100.00;97127.41;342340;28;1092;-73
2023/03/09 00:17:18;;;;;;;3.15;1.88;;;;;;;10.38;100.00;97114.38;340816;29;1036;-72
2023/03/09 00:17:30;;;;;;;2.83;1.63;;;;;;;10.40;100.00;97119.44;341097;29;1053;-73
2023/03/09 00:17:44;;;;;;;3.03;1.52;;;;;;;10.43;100.00;97131.38;340784;29;1075;-72
2023/03/09 00:17:56;;;;;;;3.30;1.33;;;;;;;10.44;100.00;97120.03;339622;29;1250;-73
2023/03/09 00:18:08;;;;;;;3.05;1.52;;;;;;;10.39;100.00;97142.00;338457;29;1124;-72
2023/03/09 00:18:21;;;;;;;2.33;1.48;;;;;;;10.40;100.00;97127.22;338411;29;1060;-73
2023/03/09 00:18:34;;;;;;;2.45;1.10;;;;;;;10.45;100.00;97152.88;338370;29;1078;-73
2023/03/09 00:18:46;;;;;;;2.28;1.10;;;;;;;10.41;100.00;97122.88;338595;29;1749;-72
2023/03/09 00:18:58;;;;;;;2.60;1.00;;;;;;;10.45;100.00;97147.69;339527;29;1072;-72
2023/03/09 00:19:10;;;;;;;3.08;1.20;;;;;;;10.43;100.00;97136.59;339014;29;1814;-72
2023/03/09 00:19:26;;;;;;;2.55;1.23;;;;;;;10.41;100.00;97141.06;338812;29;1740;-72
2023/03/09 00:19:39;;;;;;;3.38;1.00;;;;;;;10.41;100.00;97123.69;338405;29;1063;-74
2023/03/09 00:20:00;;;;;;;2.83;0.90;;;;;;;10.44;100.00;97138.22;339051;29;1210;-72
2023/03/09 00:20:18;;;;;;;1.88;1.00;;;;;;;10.43;100.00;97134.00;338985;29;1900;-72
2023/03/09 00:20:30;;;;;;;2.78;1.25;;;;;;;10.41;100.00;97117.69;339215;29;1411;-73
2023/03/09 00:20:43;;;;;;;2.63;1.05;;;;;;;10.38;100.00;97189.69;339501;29;1700;-72
2023/03/09 00:20:56;;;;;;;3.08;1.00;;;;;;;10.38;100.00;97158.53;339595;29;1322;-72
2023/03/09 00:21:14;;;;;;;2.75;1.08;;;;;;;10.35;100.00;97145.75;339942;29;1606;-72
2023/03/09 00:21:34;;;;;;;1.75;1.13;;;;;;;10.32;100.00;97137.34;338593;29;1056;-74
2023/03/09 00:21:50;;;;;;;1.88;0.90;;;;;;;10.36;100.00;97155.22;339629;29;1221;-73
2023/03/09 00:22:02;;;;;;;1.63;0.60;;;;;;;10.45;100.00;97127.72;341195;29;927;-74
2023/03/09 00:22:14;;;;;;;2.10;0.68;;;;;;;10.49;100.00;97125.75;341874;28;1081;-73
2023/03/09 00:22:27;;;;;;;1.75;0.85;;;;;;;10.48;100.00;97129.28;342330;28;1185;-73
2023/03/09 00:22:39;;;;;;;1.70;1.10;;;;;;;10.45;100.00;97145.09;342226;28;1219;-72
2023/03/09 00:22:53;;;;;;;1.40;0.98;;;;;;;10.41;100.00;97130.69;342489;28;1681;-71
2023/03/09 00:23:08;;;;;;;0.77;0.65;;;;;;;10.42;100.00;97132.31;343252;28;1795;-73
2023/03/09 00:23:20;;;;;;;0.60;0.50;;;;;;;10.32;100.00;97125.22;342154;28;1063;-72
2023/03/09 00:23:33;;;;;;;1.05;0.57;;;;;;;10.33;100.00;97132.03;343325;28;1352;-73
2023/03/09 00:23:45;;;;;;;2.47;0.80;;;;;;;10.29;100.00;97125.38;342375;28;1267;-73
2023/03/09 00:23:57;;;;;;;2.88;0.80;;;;;;;10.31;100.00;97113.16;342121;28;1919;-72
2023/03/09 00:24:12;;;;;;;1.35;0.57;;;;;;;10.24;100.00;97111.06;342196;28;1276;-72
2023/03/09 00:24:27;;;;;;;0.93;0.52;;;;;;;10.22;100.00;97118.97;342240;28;1166;-73
2023/03/09 00:24:45;;;;;;;1.13;0.80;;;;;;;10.16;100.00;97124.59;338941;28;4362;-73
2023/03/09 00:24:57;;;;;;;2.50;1.20;;;;;;;10.17;100.00;97139.25;341762;28;2527;-75
2023/03/09 00:25:13;;;;;;;2.58;0.90;;;;;;;10.16;100.00;97098.63;342020;28;1184;-74
2023/03/09 00:25:28;;;;;;;1.40;0.70;;;;;;;10.09;100.00;97098.25;341042;28;1769;-72
2023/03/09 00:25:40;;;;;;;1.45;0.70;;;;;;;10.07;100.00;97135.66;341671;28;1883;-74
2023/03/09 00:25:52;;;;;;;1.35;0.68;;;;;;;10.12;100.00;97071.25;342830;28;2029;-73
2023/03/09 00:26:06;;;;;;;0.70;0.68;;;;;;;10.05;100.00;97101.19;343268;28;1191;-75
2023/03/09 00:26:18;;;;;;;0.63;0.50;;;;;;;10.06;100.00;97082.91;341944;28;1250;-73
2023/03/09 00:26:30;;;;;;;1.25;0.45;;;;;;;10.04;100.00;97089.97;341912;28;1225;-74
2023/03/09 00:26:48;;;;;;;1.77;0.60;;;;;;;10.05;100.00;97119.34;342113;28;1075;-74
2023/03/09 00:27:02;;;;;;;1.50;0.65;;;;;;;10.08;100.00;97119.13;342173;28;1218;-74
2023/03/09 00:27:14;;;;;;;1.33;0.73;;;;;;;10.07;100.00;97105.31;341785;28;1579;-73
2023/03/09 00:27:26;;;;;;;1.40;0.60;;;;;;;10.07;100.00;97096.72;341758;28;2041;-73
2023/03/09 00:27:37;;;;;;;1.00;0.50;;;;;;;10.11;100.00;97074.78;342280;28;1903;-73
2023/03/09 00:27:51;;;;;;;1.17;0.50;;;;;;;10.07;100.00;97099.31;343381;28;1316;-73
2023/03/09 00:28:06;;;;;;;1.10;0.50;;;;;;;10.04;100.00;97094.31;343560;28;1563;-73
2023/03/09 00:28:18;;;;;;;0.88;0.65;;;;;;;9.97;100.00;97078.38;343296;28;918;-73
2023/03/09 00:28:30;;;;;;;1.00;0.70;;;;;;;9.96;100.00;97082.75;343493;28;1286;-73
2023/03/09 00:28:42;;;;;;;1.52;0.95;;;;;;;9.93;100.00;97088.13;343518;28;1228;-73
2023/03/09 00:28:54;;;;;;;1.70;0.80;;;;;;;9.97;100.00;97079.19;343269;28;1738;-73
2023/03/09 00:29:08;;;;;;;0.80;0.70;;;;;;;9.99;100.00;97092.88;341957;28;2095;-73
2023/03/09 00:29:21;;;;;;;1.45;0.57;;;;;;;9.97;100.00;97079.19;341845;28;1060;-73
2023/03/09 00:29:33;;;;;;;1.50;0.50;;;;;;;9.96;100.00;97077.56;342167;28;1391;-72
2023/03/09 00:29:45;;;;;;;0.80;0.70;;;;;;;9.92;100.00;97086.50;342253;28;1266;-73
2023/03/09 00:29:57;;;;;;;0.60;0.60;;;;;;;9.91;100.00;97079.63;342029;28;1053;-73
2023/03/09 00:30:13;;;;;;;0.70;0.60;;;;;;;9.87;100.00;97083.38;341895;28;1310;-73
2023/03/09 00:30:25;;;;;;;0.95;0.55;;;;;;;9.82;100.00;97064.72;342062;28;1049;-73
2023/03/09 00:30:37;;;;;;;1.20;0.60;;;;;;;9.79;100.00;97075.31;342158;28;1109;-73
2023/03/09 00:30:49;;;;;;;1.38;0.60;;;;;;;9.80;100.00;97069.19;342027;28;1117;-74
2023/03/09 00:31:03;;;;;;;2.58;0.60;;;;;;;9.80;100.00;97069.19;342116;28;1229;-74
2023/03/09 00:31:15;;;;;;;2.70;0.75;;;;;;;9.79;100.00;97064.94;342282;28;1240;-72
2023/03/09 00:31:27;;;;;;;2.22;0.80;;;;;;;9.77;100.00;97078.00;341965;28;1150;-73
2023/03/09 00:31:40;;;;;;;1.38;0.88;;;;;;;9.78;100.00;97073.66;342098;28;1213;-73
2023/03/09 00:31:52;;;;;;;1.30;0.70;;;;;;;9.73;100.00;97075.75;342136;28;1128;-73
2023/03/09 00:32:05;;;;;;;1.90;0.68;;;;;;;9.79;100.00;97070.94;341892;28;1165;-73
2023/03/09 00:32:17;;;;;;;1.25;0.50;;;;;;;9.78;100.00;97074.50;341925;28;1111;-73
2023/03/09 00:32:29;;;;;;;1.25;0.55;;;;;;;9.73;100.00;97075.75;342422;28;839;-73
2023/03/09 00:32:41;;;;;;;1.17;0.90;;;;;;;9.75;100.00;97074.69;342158;28;1246;-73
2023/03/09 00:32:53;;;;;;;0.95;0.75;;;;;;;9.78;100.00;97078.84;342027;28;1184;-73
2023/03/09 00:33:05;;;;;;;0.57;0.43;;;;;;;9.74;100.00;97082.59;340941;29;1312;-72
2023/03/09 00:33:17;;;;;;;0.47;0.30;;;;;;;9.73;100.00;97075.75;340123;28;1860;-74
2023/03/09 00:33:29;;;;;;;1.10;0.30;;;;;;;9.74;100.00;97077.41;340573;29;1627;-73
2023/03/09 00:33:41;;;;;;;1.83;0.30;;;;;;;9.74;100.00;97078.25;340871;29;1128;-73
2023/03/09 00:33:53;;;;;;;1.10;0.40;;;;;;;9.72;100.00;97076.69;337864;29;1280;-73
2023/03/09 00:34:06;;;;;;;1.33;0.55;;;;;;;9.69;100.00;97080.31;337227;29;1084;-73
2023/03/09 00:34:19;;;;;;;1.20;0.70;;;;;;;9.68;100.00;97063.13;338192;29;1048;-73
2023/03/09 00:34:31;;;;;;;1.08;0.73;;;;;;;9.75;100.00;97037.56;338529;29;1249;-75
2023/03/09 00:34:43;;;;;;;0.80;0.50;;;;;;;9.80;100.00;97074.38;340011;28;1759;-73
2023/03/09 00:34:55;;;;;;;1.15;0.68;;;;;;;9.87;100.00;97065.22;340795;29;1079;-73
2023/03/09 00:35:08;;;;;;;2.38;1.10;;;;;;;9.83;100.00;97079.34;339541;29;1039;-73
2023/03/09 00:35:20;;;;;;;2.95;1.10;;;;;;;9.79;100.00;97060.56;339793;29;947;-73
2023/03/09 00:35:35;;;;;;;1.67;0.57;;;;;;;9.79;100.00;97064.94;339644;29;1226;-73
2023/03/09 00:35:47;;;;;;;1.30;0.65;;;;;;;9.74;100.00;97072.22;340601;28;1284;-73
2023/03/09 00:35:59;;;;;;;1.48;0.70;;;;;;;9.70;100.00;97081.13;342751;28;1064;-73
2023/03/09 00:36:15;;;;;;;1.75;0.77;;;;;;;9.69;100.00;97072.53;343191;28;975;-73
2023/03/09 00:36:27;;;;;;;2.20;0.70;;;;;;;9.69;100.00;97080.31;343221;28;1154;-73
2023/03/09 00:36:42;;;;;;;2.53;0.70;;;;;;;9.67;100.00;97079.59;341695;28;1555;-73
2023/03/09 00:36:54;;;;;;;1.80;0.52;;;;;;;9.66;100.00;97074.50;341613;28;1651;-73
2023/03/09 00:37:06;;;;;;;0.98;0.40;;;;;;;9.66;100.00;97066.72;342850;28;1075;-73
2023/03/09 00:37:18;;;;;;;0.65;0.40;;;;;;;9.69;100.00;97062.16;342058;28;1262;-74
2023/03/09 00:37:31;;;;;;;0.85;0.75;;;;;;;9.74;100.00;97073.06;342518;28;750;-74
2023/03/09 00:37:43;;;;;;;1.23;1.13;;;;;;;9.77;100.00;97069.41;341978;28;1489;-73
2023/03/09 00:37:55;;;;;;;1.08;0.98;;;;;;;9.80;100.00;97071.78;341670;28;1331;-73
2023/03/09 00:38:08;;;;;;;0.63;0.55;;;;;;;9.77;100.00;97072.00;341765;28;1048;-73
2023/03/09 00:38:20;;;;;;;1.63;0.57;;;;;;;9.78;100.00;97073.66;340375;28;1878;-73
2023/03/09 00:38:31;;;;;;;2.70;0.60;;;;;;;9.79;100.00;97075.31;340807;29;1071;-74
2023/03/09 00:38:49;;;;;;;2.72;0.60;;;;;;;9.81;100.00;97073.44;340869;28;1309;-74
2023/03/09 00:39:01;;;;;;;1.60;0.40;;;;;;;9.81;100.00;97073.44;342118;28;1228;-73
2023/03/09 00:39:15;;;;;;;1.08;0.40;;;;;;;9.76;100.00;97067.75;340717;28;1771;-73
2023/03/09 00:39:27;;;;;;;1.92;0.50;;;;;;;9.71;100.00;97075.03;339476;29;1047;-73
2023/03/09 00:39:39;;;;;;;1.80;0.50;;;;;;;9.71;100.00;97078.44;340726;29;1102;-72
2023/03/09 00:39:51;;;;;;;1.27;0.50;;;;;;;9.74;100.00;97077.41;338450;28;6911;-73
2023/03/09 00:40:09;;;;;;;0.68;0.50;;;;;;;9.73;100.00;97068.78;340275;29;3915;-73
2023/03/09 00:40:22;;;;;;;0.70;0.50;;;;;;;9.73;100.00;97075.75;340776;29;1228;-73
2023/03/09 00:40:36;;;;;;;0.85;0.47;;;;;;;9.70;100.00;97073.34;340323;29;4183;-72
2023/03/09 00:40:49;;;;;;;1.60;0.50;;;;;;;9.71;100.00;97080.22;340694;29;1369;-73
2023/03/09 00:41:03;;;;;;;1.60;0.60;;;;;;;9.70;100.00;97075.94;341024;29;1077;-73
2023/03/09 00:41:15;;;;;;;1.45;0.57;;;;;;;9.72;100.00;97076.69;340761;29;1325;-73
2023/03/09 00:41:30;;;;;;;1.10;0.50;;;;;;;9.73;100.00;97078.34;341040;28;1301;-73
2023/03/09 00:41:43;;;;;;;1.80;0.57;;;;;;;9.74;100.00;97074.81;340035;28;1720;-73
2023/03/09 00:41:55;;;;;;;1.67;0.50;;;;;;;9.74;100.00;97078.25;339184;29;2127;-73
2023/03/09 00:42:07;;;;;;;0.88;0.47;;;;;;;9.77;100.00;97084.97;339498;29;1204;-73
2023/03/09 00:42:19;;;;;;;1.40;0.40;;;;;;;9.75;100.00;97081.66;339330;29;1161;-72
2023/03/09 00:42:31;;;;;;;0.90;0.40;;;;;;;9.79;100.00;97067.53;339634;29;1301;-73
2023/03/09 00:42:44;;;;;;;1.27;0.43;;;;;;;9.82;100.00;97080.31;339414;29;1133;-73
2023/03/09 00:42:56;;;;;;;1.65;0.60;;;;;;;9.84;100.00;97072.38;342023;28;1175;-73
2023/03/09 00:43:08;;;;;;;2.20;1.00;;;;;;;9.92;100.00;97081.31;342081;28;1110;-72
2023/03/09 00:43:20;;;;;;;1.95;0.90;;;;;;;9.84;100.00;97077.56;342244;28;1272;-73
2023/03/09 00:43:32;;;;;;;1.50;0.73;;;;;;;9.82;100.00;97085.50;341989;28;1124;-73
2023/03/09 00:43:44;;;;;;;1.17;0.50;;;;;;;9.84;100.00;97078.44;341366;28;2191;-73
2023/03/09 00:44:00;;;;;;;1.10;0.40;;;;;;;9.82;100.00;97080.31;342056;28;1130;-73
2023/03/09 00:44:13;;;;;;;1.38;0.40;;;;;;;9.82;100.00;97085.50;342110;28;1178;-72
2023/03/09 00:44:25;;;;;;;1.25;0.52;;;;;;;9.83;100.00;97087.13;341480;28;1890;-73
2023/03/09 00:44:37;;;;;;;3.22;0.70;;;;;;;9.82;100.00;97080.31;341970;28;1055;-73
2023/03/09 00:44:50;;;;;;;3.35;0.80;;;;;;;9.80;100.00;97087.38;341768;28;1330;-73
2023/03/09 00:45:03;;;;;;;1.20;0.57;;;;;;;9.86;100.00;97076.56;341532;28;1077;-72
2023/03/09 00:45:15;;;;;;;0.98;0.50;;;;;;;9.84;100.00;97081.03;342258;28;1017;-72
2023/03/09 00:45:27;;;;;;;1.20;0.45;;;;;;;9.86;100.00;97081.75;342003;28;1053;-73
2023/03/09 00:45:39;;;;;;;1.30;0.50;;;;;;;9.84;100.00;97087.94;342040;28;1989;-73
2023/03/09 00:45:51;;;;;;;1.60;0.50;;;;;;;9.82;100.00;97076.84;341379;28;1448;-73
2023/03/09 00:46:03;;;;;;;1.58;0.50;;;;;;;9.81;100.00;97083.81;342441;28;746;-73
2023/03/09 00:46:20;;;;;;;0.90;0.50;;;;;;;9.76;100.00;97080.72;341832;28;1154;-73
2023/03/09 00:46:32;;;;;;;2.08;0.52;;;;;;;9.68;100.00;97078.69;341583;28;1340;-73
2023/03/09 00:46:44;;;;;;;2.17;0.68;;;;;;;9.69;100.00;97063.94;343043;28;1333;-73
2023/03/09 00:46:56;;;;;;;1.50;0.77;;;;;;;9.71;100.00;97078.44;343239;28;1049;-73
2023/03/09 00:47:08;;;;;;;2.10;0.88;;;;;;;9.74;100.00;97073.06;343381;28;1065;-73
2023/03/09 00:47:20;;;;;;;2.08;1.08;;;;;;;9.78;100.00;97078.84;343309;28;1174;-74
2023/03/09 00:47:32;;;;;;;1.80;1.10;;;;;;;9.77;100.00;97088.38;343442;28;1189;-73
2023/03/09 00:47:44;;;;;;;1.43;0.83;;;;;;;9.73;100.00;97065.38;341989;28;1916;-73
2023/03/09 00:47:56;;;;;;;1.08;0.50;;;;;;;9.75;100.00;97073.88;342062;28;1122;-73
2023/03/09 00:48:08;;;;;;;0.80;0.50;;;;;;;9.73;100.00;97079.16;342074;28;1393;-73
2023/03/09 00:48:20;;;;;;;0.65;0.43;;;;;;;9.76;100.00;97075.53;342104;28;1248;-73
2023/03/09 00:48:32;;;;;;;0.80;0.50;;;;;;;9.74;100.00;97085.19;340841;29;1108;-73
2023/03/09 00:48:45;;;;;;;0.52;0.50;;;;;;;9.75;100.00;97074.69;340556;29;1441;-74
2023/03/09 00:48:58;;;;;;;1.50;0.50;;;;;;;9.79;100.00;97083.09;340586;29;1736;-73
2023/03/09 00:49:12;;;;;;;2.97;0.70;;;;;;;9.81;100.00;97078.63;340515;29;1122;-73
2023/03/09 00:49:24;;;;;;;2.58;1.02;;;;;;;9.82;100.00;97074.25;340365;29;1654;-73
2023/03/09 00:49:38;;;;;;;2.33;1.90;;;;;;;9.75;100.00;97089.44;340559;29;1055;-73
2023/03/09 00:49:50;;;;;;;2.30;1.80;;;;;;;9.70;100.00;97086.31;340571;29;1352;-73
2023/03/09 00:50:04;;;;;;;2.22;1.58;;;;;;;9.70;100.00;97082.00;340890;29;1325;-73
2023/03/09 00:50:16;;;;;;;1.13;0.60;;;;;;;9.67;100.00;97086.56;340675;29;1076;-72
2023/03/09 00:50:28;;;;;;;1.23;0.50;;;;;;;9.65;100.00;97083.25;340690;29;1120;-72
2023/03/09 00:50:40;;;;;;;1.65;0.85;;;;;;;9.67;100.00;97081.38;341564;28;1201;-72
2023/03/09 00:50:52;;;;;;;1.35;0.90;;;;;;;9.64;100.00;97077.22;341950;28;1246;-73
2023/03/09 00:51:05;;;;;;;1.50;0.82;;;;;;;9.60;100.00;97086.16;341953;28;1053;-73
2023/03/09 00:51:17;;;;;;;2.80;0.63;;;;;;;9.59;100.00;97092.28;341897;28;1269;-73
2023/03/09 00:51:30;;;;;;;3.03;0.60;;;;;;;9.56;100.00;97084.72;340676;29;1237;-72
2023/03/09 00:51:42;;;;;;;2.17;0.50;;;;;;;9.53;100.00;97084.91;340051;28;1774;-73
2023/03/09 00:51:54;;;;;;;2.03;1.15;;;;;;;9.52;100.00;97081.50;340567;29;1120;-73
2023/03/09 00:52:06;;;;;;;1.58;1.38;;;;;;;9.57;100.00;97071.63;340812;29;1100;-73
2023/03/09 00:52:18;;;;;;;1.30;1.15;;;;;;;9.60;100.00;97061.06;341586;28;756;-73
2023/03/09 00:52:30;;;;;;;2.00;0.70;;;;;;;9.68;100.00;97099.44;341912;28;1108;-73
2023/03/09 00:52:42;;;;;;;2.25;0.93;;;;;;;9.73;100.00;97081.75;340669;28;1284;-75
2023/03/09 00:52:54;;;;;;;2.17;0.95;;;;;;;9.74;100.00;97090.38;340702;29;1218;-74
2023/03/09 00:53:07;;;;;;;1.00;0.85;;;;;;;9.69;100.00;97085.50;341150;29;738;-73
2023/03/09 00:53:19;;;;;;;1.60;0.65;;;;;;;9.71;100.00;97083.63;340769;29;1331;-73
2023/03/09 00:53:32;;;;;;;1.50;0.70;;;;;;;9.70;100.00;97081.13;341454;28;1851;-74
2023/03/09 00:53:44;;;;;;;0.80;0.60;;;;;;;9.64;100.00;97081.56;341275;28;1991;-73
2023/03/09 00:53:56;;;;;;;0.90;0.50;;;;;;;9.64;100.00;97085.00;340747;29;1061;-73
2023/03/09 00:54:10;;;;;;;1.35;0.60;;;;;;;9.65;100.00;97085.84;340806;29;1187;-74
2023/03/09 00:54:22;;;;;;;3.97;1.20;;;;;;;9.60;100.00;97076.59;340680;29;1048;-74
2023/03/09 00:54:34;;;;;;;5.13;1.38;;;;;;;9.60;100.00;97071.44;340791;29;1120;-73
2023/03/09 00:54:46;;;;;;;4.45;1.23;;;;;;;9.62;100.00;97083.44;341369;28;1222;-72
2023/03/09 00:54:59;;;;;;;2.30;0.82;;;;;;;9.62;100.00;97078.25;341281;28;1780;-73
2023/03/09 00:55:11;;;;;;;1.90;0.52;;;;;;;9.56;100.00;97085.53;341333;28;1804;-73
2023/03/09 00:55:23;;;;;;;1.90;0.50;;;;;;;9.54;100.00;97084.81;342131;28;2032;-73
2023/03/09 00:55:35;;;;;;;1.08;0.50;;;;;;;9.52;100.00;97078.91;342289;28;1184;-73
2023/03/09 00:55:47;;;;;;;0.60;0.40;;;;;;;9.50;100.00;97085.97;342060;28;1212;-73
2023/03/09 00:56:04;;;;;;;0.68;0.40;;;;;;;9.52;100.00;97083.28;341787;28;1841;-73
2023/03/09 00:56:19;;;;;;;1.05;0.70;;;;;;;9.51;100.00;97082.44;342002;28;1178;-73
2023/03/09 00:56:31;;;;;;;0.90;0.57;;;;;;;9.51;100.00;97085.03;342792;28;1294;-73
2023/03/09 00:56:43;;;;;;;0.85;0.50;;;;;;;9.47;100.00;97088.75;343179;28;1256;-72
2023/03/09 00:56:55;;;;;;;1.67;0.68;;;;;;;9.49;100.00;97073.94;341881;28;1344;-74
2023/03/09 00:57:08;;;;;;;1.58;0.60;;;;;;;9.53;100.00;97083.16;341883;28;1194;-73
2023/03/09 00:57:21;;;;;;;1.38;0.60;;;;;;;9.58;100.00;97091.44;342536;28;752;-73
2023/03/09 00:57:34;;;;;;;1.65;0.90;;;;;;;9.55;100.00;97083.88;342166;28;1119;-73
2023/03/09 00:57:46;;;;;;;2.25;1.80;;;;;;;9.56;100.00;97089.91;342019;28;1605;-73
2023/03/09 00:57:58;;;;;;;2.45;2.22;;;;;;;9.56;100.00;97080.34;341557;28;1845;-74
2023/03/09 00:58:10;;;;;;;2.47;1.88;;;;;;;9.56;100.00;97088.13;339116;28;4673;-73
2023/03/09 00:58:22;;;;;;;2.92;1.90;;;;;;;9.59;100.00;97082.72;342109;28;3906;-73
2023/03/09 00:58:35;;;;;;;1.92;1.00;;;;;;;9.58;100.00;97078.47;340717;29;1790;-73
2023/03/09 00:58:47;;;;;;;1.48;1.00;;;;;;;9.53;100.00;97082.31;340326;29;3681;-73
2023/03/09 00:59:00;;;;;;;0.90;0.80;;;;;;;9.53;100.00;97095.28;340156;29;1102;-73
2023/03/09 00:59:12;;;;;;;0.82;0.50;;;;;;;9.51;100.00;97081.59;340781;29;976;-73
2023/03/09 00:59:24;;;;;;;1.85;1.08;;;;;;;9.54;100.00;97092.59;340852;28;1614;-73
2023/03/09 00:59:36;;;;;;;2.20;1.13;;;;;;;9.58;100.00;97073.28;341096;29;1080;-74
2023/03/09 00:59:48;;;;;;;3.33;1.05;;;;;;;9.58;100.00;97081.06;341162;28;1361;-73
2023/03/09 01:00:01;;;;;;;2.60;0.80;;;;;;;9.53;100.00;97090.94;340892;29;1075;-73
2023/03/09 01:00:13;;;;;;;0.90;0.52;;;;;;;9.50;100.00;97085.97;339584;29;1225;-72
2023/03/09 01:00:26;;;;;;;2.15;1.42;;;;;;;9.45;100.00;97088.03;339325;29;1182;-73
2023/03/09 01:00:38;;;;;;;2.10;1.80;;;;;;;9.46;100.00;97096.66;340067;29;1065;-73
2023/03/09 01:00:49;;;;;;;2.15;1.27;;;;;;;9.49;100.00;97086.88;341696;28;1306;-73
2023/03/09 01:01:07;;;;;;;1.30;0.57;;;;;;;9.54;100.00;97082.22;342054;28;1031;-73
2023/03/09 01:01:20;;;;;;;1.50;0.60;;;;;;;9.58;100.00;97083.66;341745;28;2102;-73
2023/03/09 01:01:32;;;;;;;1.80;0.70;;;;;;;9.65;99.94;97098.81;342089;28;1294;-73
2023/03/09 01:01:44;;;;;;;1.70;0.93;;;;;;;9.68;99.76;97088.19;342310;28;1335;-73